createdAt,value
2022-08-22T00:00:35.821Z,15.28
2022-08-22T00:01:35.816Z,15.25
2022-08-22T00:02:35.862Z,15.28
2022-08-22T00:02:48.496Z,18.32
2022-08-22T00:02:53.685Z,17.56
2022-08-22T00:03:02.257Z,19.00
2022-08-22T00:03:12.559Z,14.95
2022-08-22T00:03:35.782Z,15.29
2022-08-22T00:04:35.768Z,15.29
2022-08-22T00:05:35.780Z,15.27
2022-08-22T00:06:35.730Z,15.28
2022-08-22T00:07:35.728Z,15.29
2022-08-22T00:08:35.724Z,15.29
2022-08-22T00:09:35.714Z,15.32
2022-08-22T00:10:35.705Z,15.31
2022-08-22T00:11:35.698Z,15.34
2022-08-22T00:12:35.723Z,15.36
2022-08-22T00:13:35.670Z,15.38
2022-08-22T00:14:35.664Z,15.35
2022-08-22T00:15:43.035Z,15.35
2022-08-22T00:16:36.675Z,15.32
2022-08-22T00:17:35.632Z,15.32
2022-08-22T00:18:35.619Z,15.28
2022-08-22T00:19:35.611Z,15.27
2022-08-22T00:20:35.596Z,15.23
2022-08-22T00:21:35.714Z,15.21
2022-08-22T00:22:35.590Z,15.19
2022-08-22T00:23:35.554Z,15.11
2022-08-22T00:24:35.616Z,15.10
2022-08-22T00:25:35.547Z,15.09
2022-08-22T00:26:35.542Z,15.07
2022-08-22T00:27:35.509Z,15.03
2022-08-22T00:28:35.516Z,15.01
2022-08-22T00:29:35.511Z,14.99
2022-08-22T00:30:35.508Z,14.98
2022-08-22T00:31:35.499Z,14.94
2022-08-22T00:32:35.471Z,14.89
2022-08-22T00:33:35.457Z,14.84
2022-08-22T00:34:35.456Z,14.81
2022-08-22T00:35:35.442Z,14.78
2022-08-22T00:36:35.439Z,14.80
2022-08-22T00:37:35.425Z,14.83
2022-08-22T00:38:35.419Z,14.80
2022-08-22T00:39:35.390Z,14.84
2022-08-22T00:40:35.393Z,14.88
2022-08-22T00:41:35.366Z,14.94
2022-08-22T00:42:35.365Z,14.98
2022-08-22T00:43:35.351Z,15.01
2022-08-22T00:44:35.348Z,15.03
2022-08-22T00:45:35.329Z,15.06
2022-08-22T00:46:35.317Z,15.07
2022-08-22T00:47:35.346Z,15.09
2022-08-22T00:48:35.303Z,15.06
2022-08-22T00:49:35.277Z,15.07
2022-08-22T00:50:35.279Z,15.09
2022-08-22T00:51:35.266Z,15.11
2022-08-22T00:52:35.459Z,15.11
2022-08-22T00:53:35.248Z,15.11
2022-08-22T00:54:35.232Z,15.14
2022-08-22T00:55:35.320Z,15.13
2022-08-22T00:56:35.226Z,15.10
2022-08-22T00:57:35.203Z,15.06
2022-08-22T00:58:35.200Z,14.99
2022-08-22T00:59:35.164Z,14.95
2022-08-22T01:00:36.673Z,14.92
2022-08-22T01:01:35.235Z,14.91
2022-08-22T01:02:35.147Z,14.86
2022-08-22T01:03:35.140Z,14.84
2022-08-22T01:04:35.130Z,14.86
2022-08-22T01:05:35.110Z,14.86
2022-08-22T01:06:35.106Z,14.83
2022-08-22T01:07:38.131Z,14.81
2022-08-22T01:08:35.085Z,14.77
2022-08-22T01:09:35.066Z,14.70
2022-08-22T01:10:35.051Z,14.70
2022-08-22T01:11:35.047Z,14.69
2022-08-22T01:12:35.048Z,14.65
2022-08-22T01:13:35.050Z,14.60
2022-08-22T01:14:35.424Z,14.58
2022-08-22T01:15:35.037Z,14.60
2022-08-22T01:16:35.011Z,14.61
2022-08-22T01:17:34.979Z,14.60
2022-08-22T01:18:34.970Z,14.60
2022-08-22T01:19:34.962Z,14.62
2022-08-22T01:20:34.972Z,14.64
2022-08-22T01:21:34.943Z,14.65
2022-08-22T01:22:34.921Z,14.68
2022-08-22T01:23:35.127Z,14.68
2022-08-22T01:24:34.912Z,14.68
2022-08-22T01:25:34.898Z,14.68
2022-08-22T01:26:34.889Z,14.62
2022-08-22T01:27:34.895Z,14.60
2022-08-22T01:28:34.861Z,14.52
2022-08-22T01:29:34.847Z,14.47
2022-08-22T01:30:34.838Z,14.42
2022-08-22T01:31:34.840Z,14.39
2022-08-22T01:32:34.830Z,14.33
2022-08-22T01:33:34.823Z,14.27
2022-08-22T01:34:34.807Z,14.25
2022-08-22T01:35:34.789Z,14.22
2022-08-22T01:36:34.765Z,14.22
2022-08-22T01:37:34.771Z,14.28
2022-08-22T01:38:35.760Z,14.32
2022-08-22T01:39:34.738Z,14.32
2022-08-22T01:40:34.744Z,14.36
2022-08-22T01:41:34.725Z,14.33
2022-08-22T01:42:34.742Z,14.33
2022-08-22T01:43:59.930Z,14.32
2022-08-22T01:44:35.684Z,14.27
2022-08-22T01:45:34.685Z,14.24
2022-08-22T01:46:34.672Z,14.18
2022-08-22T01:47:36.801Z,14.15
2022-08-22T01:48:34.653Z,14.12
2022-08-22T01:49:34.634Z,14.10
2022-08-22T01:50:34.637Z,14.09
2022-08-22T01:51:34.631Z,14.06
2022-08-22T01:52:34.609Z,14.06
2022-08-22T01:53:34.589Z,14.04
2022-08-22T01:54:34.645Z,14.07
2022-08-22T01:55:34.596Z,14.12
2022-08-22T01:56:34.562Z,14.12
2022-08-22T01:57:34.542Z,14.15
2022-08-22T01:58:34.544Z,14.15
2022-08-22T01:59:34.527Z,14.12
2022-08-22T02:00:35.503Z,14.12
2022-08-22T02:01:34.522Z,14.09
2022-08-22T02:02:35.355Z,14.06
2022-08-22T02:03:34.506Z,14.02
2022-08-22T02:04:34.465Z,14.00
2022-08-22T02:05:34.487Z,13.95
2022-08-22T02:06:34.458Z,13.89
2022-08-22T02:07:34.447Z,13.88
2022-08-22T02:08:34.427Z,13.87
2022-08-22T02:09:34.443Z,13.85
2022-08-22T02:10:34.415Z,13.85
2022-08-22T02:11:34.393Z,13.84
2022-08-22T02:12:34.386Z,13.79
2022-08-22T02:13:34.377Z,13.78
2022-08-22T02:14:34.383Z,13.77
2022-08-22T02:15:34.363Z,13.73
2022-08-22T02:16:34.339Z,13.70
2022-08-22T02:17:34.330Z,13.70
2022-08-22T02:18:34.323Z,13.69
2022-08-22T02:19:34.308Z,13.69
2022-08-22T02:20:34.303Z,13.67
2022-08-22T02:21:34.281Z,13.66
2022-08-22T02:22:34.275Z,13.66
2022-08-22T02:23:34.288Z,13.64
2022-08-22T02:24:34.268Z,13.64
2022-08-22T02:25:34.445Z,13.60
2022-08-22T02:26:34.240Z,13.59
2022-08-22T02:27:34.222Z,13.55
2022-08-22T02:28:34.217Z,13.49
2022-08-22T02:29:34.204Z,13.49
2022-08-22T02:30:34.205Z,13.48
2022-08-22T02:31:34.186Z,13.48
2022-08-22T02:32:34.156Z,13.51
2022-08-22T02:33:34.162Z,13.57
2022-08-22T02:34:34.138Z,13.64
2022-08-22T02:35:34.150Z,13.70
2022-08-22T02:37:35.754Z,13.82
2022-08-22T02:38:35.736Z,13.78
2022-08-22T02:39:35.727Z,13.75
2022-08-22T02:40:35.721Z,13.73
2022-08-22T02:41:35.705Z,13.73
2022-08-22T02:42:35.706Z,13.69
2022-08-22T02:43:35.686Z,13.66
2022-08-22T02:44:35.683Z,13.59
2022-08-22T02:45:35.685Z,13.55
2022-08-22T02:46:35.655Z,13.51
2022-08-22T02:47:35.665Z,13.48
2022-08-22T02:48:35.626Z,13.46
2022-08-22T02:49:35.623Z,13.42
2022-08-22T02:50:36.607Z,13.36
2022-08-22T02:51:35.628Z,13.30
2022-08-22T02:52:35.596Z,13.26
2022-08-22T02:53:35.590Z,13.25
2022-08-22T02:54:35.578Z,13.22
2022-08-22T02:55:35.665Z,13.20
2022-08-22T02:56:35.557Z,13.20
2022-08-22T02:57:36.219Z,13.17
2022-08-22T02:58:35.528Z,13.11
2022-08-22T02:59:35.524Z,13.17
2022-08-22T03:00:35.544Z,13.22
2022-08-22T03:01:35.497Z,13.28
2022-08-22T03:02:35.468Z,13.26
2022-08-22T03:03:35.474Z,13.23
2022-08-22T03:04:35.477Z,13.17
2022-08-22T03:05:35.466Z,13.11
2022-08-22T03:06:35.458Z,13.08
2022-08-22T03:07:35.423Z,13.04
2022-08-22T03:08:35.555Z,13.01
2022-08-22T03:09:35.420Z,13.00
2022-08-22T03:10:35.403Z,12.97
2022-08-22T03:11:35.400Z,13.00
2022-08-22T03:12:35.375Z,12.96
2022-08-22T03:13:35.390Z,12.93
2022-08-22T03:14:35.340Z,12.90
2022-08-22T03:15:35.341Z,12.86
2022-08-22T03:16:35.329Z,12.82
2022-08-22T03:17:35.340Z,12.77
2022-08-22T03:18:35.312Z,12.74
2022-08-22T03:19:35.323Z,12.72
2022-08-22T03:20:35.288Z,12.72
2022-08-22T03:21:35.265Z,12.74
2022-08-22T03:22:35.274Z,12.75
2022-08-22T03:23:35.270Z,12.75
2022-08-22T03:24:35.246Z,12.74
2022-08-22T03:25:35.239Z,12.75
2022-08-22T03:26:35.679Z,12.72
2022-08-22T03:27:35.215Z,12.72
2022-08-22T03:28:35.242Z,12.72
2022-08-22T03:29:35.204Z,12.71
2022-08-22T03:30:35.179Z,12.71
2022-08-22T03:31:35.175Z,12.72
2022-08-22T03:32:35.148Z,12.77
2022-08-22T03:33:37.818Z,12.79
2022-08-22T03:34:35.596Z,12.82
2022-08-22T03:35:35.734Z,12.86
2022-08-22T03:36:35.513Z,12.90
2022-08-22T03:37:35.429Z,12.95
2022-08-22T03:38:35.229Z,12.95
2022-08-22T03:39:35.169Z,12.92
2022-08-22T03:40:35.140Z,12.93
2022-08-22T03:41:35.096Z,12.89
2022-08-22T03:42:35.039Z,12.89
2022-08-22T03:43:35.052Z,12.89
2022-08-22T03:44:35.060Z,12.87
2022-08-22T03:45:35.026Z,12.85
2022-08-22T03:46:35.031Z,12.83
2022-08-22T03:47:35.027Z,12.83
2022-08-22T03:48:34.988Z,12.82
2022-08-22T03:49:34.989Z,12.79
2022-08-22T03:50:34.986Z,12.78
2022-08-22T03:51:34.952Z,12.77
2022-08-22T03:52:34.937Z,12.74
2022-08-22T03:53:34.959Z,12.72
2022-08-22T03:54:34.945Z,12.72
2022-08-22T03:55:34.906Z,12.75
2022-08-22T03:56:34.926Z,12.74
2022-08-22T03:57:35.372Z,12.74
2022-08-22T03:58:35.020Z,12.74
2022-08-22T03:59:35.023Z,12.71
2022-08-22T04:00:36.684Z,12.68
2022-08-22T04:01:35.094Z,12.67
2022-08-22T04:02:42.953Z,12.67
2022-08-22T04:03:35.937Z,12.70
2022-08-22T04:04:35.753Z,12.70
2022-08-22T04:05:35.064Z,12.72
2022-08-22T04:06:35.539Z,12.75
2022-08-22T04:07:35.887Z,12.72
2022-08-22T04:08:35.290Z,12.74
2022-08-22T04:09:35.198Z,12.72
2022-08-22T04:10:35.186Z,12.70
2022-08-22T04:11:34.891Z,12.68
2022-08-22T04:12:34.790Z,12.68
2022-08-22T04:13:34.914Z,12.68
2022-08-22T04:14:34.912Z,12.62
2022-08-22T04:15:35.036Z,12.62
2022-08-22T04:16:34.908Z,12.59
2022-08-22T04:17:35.003Z,12.57
2022-08-22T04:18:35.293Z,12.54
2022-08-22T04:19:34.831Z,12.53
2022-08-22T04:20:34.996Z,12.50
2022-08-22T04:21:34.710Z,12.50
2022-08-22T04:22:34.702Z,12.47
2022-08-22T04:23:34.744Z,12.45
2022-08-22T04:24:34.626Z,12.41
2022-08-22T04:25:34.591Z,12.41
2022-08-22T04:26:34.575Z,12.42
2022-08-22T04:27:34.644Z,12.42
2022-08-22T04:28:34.724Z,12.42
2022-08-22T04:29:34.715Z,12.46
2022-08-22T04:30:34.812Z,12.45
2022-08-22T04:31:34.621Z,12.46
2022-08-22T04:32:34.644Z,12.46
2022-08-22T04:33:34.674Z,12.47
2022-08-22T04:34:34.568Z,12.46
2022-08-22T04:35:34.571Z,12.50
2022-08-22T04:36:34.622Z,12.50
2022-08-22T04:37:34.790Z,12.50
2022-08-22T04:38:35.053Z,12.52
2022-08-22T04:39:34.597Z,12.49
2022-08-22T04:40:34.531Z,12.49
2022-08-22T04:41:34.769Z,12.50
2022-08-22T04:42:34.453Z,12.49
2022-08-22T04:43:34.484Z,12.52
2022-08-22T04:44:34.658Z,12.50
2022-08-22T04:45:34.372Z,12.50
2022-08-22T04:46:36.814Z,12.52
2022-08-22T04:47:34.374Z,12.50
2022-08-22T04:48:34.344Z,12.54
2022-08-22T04:49:34.325Z,12.53
2022-08-22T04:50:35.169Z,12.54
2022-08-22T04:51:34.408Z,12.56
2022-08-22T04:52:34.384Z,12.54
2022-08-22T04:53:34.462Z,12.54
2022-08-22T04:54:34.447Z,12.54
2022-08-22T04:55:34.458Z,12.53
2022-08-22T04:56:34.380Z,12.54
2022-08-22T04:57:34.448Z,12.53
2022-08-22T04:58:34.407Z,12.53
2022-08-22T04:59:34.483Z,12.54
2022-08-22T05:00:34.253Z,12.56
2022-08-22T05:01:34.218Z,12.57
2022-08-22T05:02:34.185Z,12.59
2022-08-22T05:03:34.197Z,12.62
2022-08-22T05:04:34.168Z,12.67
2022-08-22T05:05:34.154Z,12.68
2022-08-22T05:06:34.161Z,12.71
2022-08-22T05:07:35.912Z,12.72
2022-08-22T05:08:34.123Z,12.75
2022-08-22T05:09:34.127Z,12.77
2022-08-22T05:10:34.116Z,12.77
2022-08-22T05:11:34.100Z,12.77
2022-08-22T05:12:34.147Z,12.78
2022-08-22T05:13:34.082Z,12.79
2022-08-22T05:14:34.053Z,12.82
2022-08-22T05:15:34.044Z,12.79
2022-08-22T05:16:34.055Z,12.82
2022-08-22T05:17:34.031Z,12.85
2022-08-22T05:18:34.033Z,12.86
2022-08-22T05:19:34.004Z,12.89
2022-08-22T05:20:33.985Z,12.92
2022-08-22T05:21:33.997Z,12.95
2022-08-22T05:22:33.976Z,12.97
2022-08-22T05:23:33.989Z,13.00
2022-08-22T05:24:33.985Z,13.04
2022-08-22T05:25:33.986Z,13.08
2022-08-22T05:26:33.932Z,13.14
2022-08-22T05:27:33.922Z,13.19
2022-08-22T05:28:33.926Z,13.23
2022-08-22T05:29:33.946Z,13.26
2022-08-22T05:30:33.890Z,13.33
2022-08-22T05:31:33.918Z,13.38
2022-08-22T05:32:33.878Z,13.45
2022-08-22T05:33:33.844Z,13.52
2022-08-22T05:34:33.850Z,13.57
2022-08-22T05:35:33.841Z,13.60
2022-08-22T05:36:33.822Z,13.64
2022-08-22T05:37:33.808Z,13.66
2022-08-22T05:38:33.800Z,13.70
2022-08-22T05:39:33.806Z,13.78
2022-08-22T05:40:33.781Z,13.79
2022-08-22T05:41:33.793Z,13.84
2022-08-22T05:42:33.759Z,13.87
2022-08-22T05:43:33.771Z,13.96
2022-08-22T05:44:33.736Z,13.97
2022-08-22T05:45:33.757Z,14.03
2022-08-22T05:46:33.713Z,14.04
2022-08-22T05:47:33.700Z,14.12
2022-08-22T05:48:33.696Z,14.17
2022-08-22T05:49:33.682Z,14.25
2022-08-22T05:50:33.667Z,14.32
2022-08-22T05:51:33.649Z,14.40
2022-08-22T05:52:33.645Z,14.47
2022-08-22T05:53:33.657Z,14.55
2022-08-22T05:54:34.623Z,14.60
2022-08-22T05:55:33.614Z,14.68
2022-08-22T05:56:33.609Z,14.75
2022-08-22T05:57:33.608Z,14.86
2022-08-22T05:58:33.607Z,14.94
2022-08-22T05:59:33.598Z,15.02
2022-08-22T06:00:33.619Z,15.09
2022-08-22T06:01:33.787Z,15.14
2022-08-22T06:02:33.556Z,15.20
2022-08-22T06:03:33.538Z,15.28
2022-08-22T06:04:33.518Z,15.32
2022-08-22T06:05:33.534Z,15.36
2022-08-22T06:06:33.496Z,15.39
2022-08-22T06:07:33.497Z,15.43
2022-08-22T06:08:33.497Z,15.46
2022-08-22T06:09:35.572Z,15.49
2022-08-22T06:10:33.476Z,15.50
2022-08-22T06:11:33.957Z,15.51
2022-08-22T06:12:33.432Z,15.54
2022-08-22T06:13:33.413Z,15.59
2022-08-22T06:14:33.415Z,15.64
2022-08-22T06:15:33.406Z,15.71
2022-08-22T06:16:33.404Z,15.80
2022-08-22T06:17:33.379Z,15.83
2022-08-22T06:18:33.363Z,15.89
2022-08-22T06:19:33.385Z,15.96
2022-08-22T06:20:33.377Z,16.02
2022-08-22T06:21:38.676Z,16.11
2022-08-22T06:22:34.356Z,16.17
2022-08-22T06:23:33.344Z,16.24
2022-08-22T06:24:33.305Z,16.30
2022-08-22T06:25:33.302Z,16.38
2022-08-22T06:26:33.288Z,16.39
2022-08-22T06:27:33.280Z,16.42
2022-08-22T06:28:33.264Z,16.48
2022-08-22T06:29:33.251Z,16.53
2022-08-22T06:30:33.242Z,16.58
2022-08-22T06:31:33.364Z,16.64
2022-08-22T06:32:58.480Z,16.68
2022-08-22T06:33:34.213Z,16.75
2022-08-22T06:34:33.232Z,16.82
2022-08-22T06:35:33.187Z,16.86
2022-08-22T06:36:33.184Z,16.94
2022-08-22T06:37:33.154Z,17.00
2022-08-22T06:38:33.165Z,17.07
2022-08-22T06:39:33.651Z,17.11
2022-08-22T06:40:33.892Z,17.15
2022-08-22T06:41:33.859Z,17.18
2022-08-22T06:42:33.538Z,17.22
2022-08-22T06:43:33.666Z,17.25
2022-08-22T06:44:34.701Z,17.26
2022-08-22T06:45:34.013Z,17.34
2022-08-22T06:46:34.880Z,17.40
2022-08-22T06:47:33.332Z,17.44
2022-08-22T06:48:33.757Z,17.52
2022-08-22T06:49:34.111Z,17.56
2022-08-22T06:50:33.815Z,17.64
2022-08-22T06:51:34.673Z,17.68
2022-08-22T06:52:34.821Z,17.74
2022-08-22T06:53:33.512Z,17.78
2022-08-22T06:55:43.105Z,17.95
2022-08-22T06:56:43.091Z,17.96
2022-08-22T06:57:45.794Z,17.99
2022-08-22T06:58:43.068Z,18.05
2022-08-22T06:59:43.079Z,18.10
2022-08-22T07:00:43.056Z,18.17
2022-08-22T07:01:43.161Z,18.20
2022-08-22T07:02:43.019Z,18.23
2022-08-22T07:03:43.009Z,18.30
2022-08-22T07:04:43.017Z,18.35
2022-08-22T07:05:42.991Z,18.41
2022-08-22T07:06:42.999Z,18.45
2022-08-22T07:07:42.979Z,18.51
2022-08-22T07:08:42.959Z,18.60
2022-08-22T07:09:42.955Z,18.66
2022-08-22T07:10:42.948Z,18.73
2022-08-22T07:11:42.938Z,18.78
2022-08-22T07:12:42.923Z,18.80
2022-08-22T07:13:42.900Z,18.82
2022-08-22T07:14:42.901Z,18.85
2022-08-22T07:15:42.873Z,18.92
2022-08-22T07:16:42.883Z,18.98
2022-08-22T07:17:42.875Z,19.00
2022-08-22T07:18:42.861Z,19.06
2022-08-22T07:19:42.837Z,19.11
2022-08-22T07:20:42.853Z,19.16
2022-08-22T07:21:42.824Z,19.14
2022-08-22T07:22:42.810Z,19.19
2022-08-22T07:23:42.816Z,19.18
2022-08-22T07:24:42.783Z,19.18
2022-08-22T07:25:42.779Z,19.21
2022-08-22T07:26:42.779Z,19.26
2022-08-22T07:27:42.761Z,19.29
2022-08-22T07:28:51.407Z,19.32
2022-08-22T07:29:43.739Z,19.36
2022-08-22T07:30:42.734Z,19.39
2022-08-22T07:31:42.706Z,19.46
2022-08-22T07:32:42.766Z,19.54
2022-08-22T07:33:42.702Z,19.61
2022-08-22T07:34:42.673Z,19.66
2022-08-22T07:35:42.669Z,19.74
2022-08-22T07:36:43.678Z,19.81
2022-08-22T07:37:42.647Z,19.87
2022-08-22T07:38:42.702Z,19.94
2022-08-22T07:39:42.666Z,20.02
2022-08-22T07:40:42.619Z,20.10
2022-08-22T07:41:42.631Z,20.18
2022-08-22T07:42:42.596Z,20.18
2022-08-22T07:43:42.590Z,20.17
2022-08-22T07:44:42.574Z,20.21
2022-08-22T07:45:42.565Z,20.26
2022-08-22T07:46:42.536Z,20.31
2022-08-22T07:47:43.739Z,20.36
2022-08-22T07:49:05.951Z,20.28
2022-08-22T07:49:49.727Z,20.29
2022-08-22T07:50:43.519Z,20.26
2022-08-22T07:51:42.496Z,20.38
2022-08-22T07:52:42.498Z,20.50
2022-08-22T07:53:42.490Z,20.62
2022-08-22T07:54:42.460Z,20.72
2022-08-22T07:55:49.534Z,20.80
2022-08-22T07:56:43.452Z,20.92
2022-08-22T07:57:42.448Z,20.99
2022-08-22T07:58:42.430Z,21.04
2022-08-22T07:59:42.405Z,21.06
2022-08-22T08:00:42.417Z,21.06
2022-08-22T08:01:42.424Z,21.10
2022-08-22T08:02:42.381Z,21.10
2022-08-22T08:03:42.543Z,21.09
2022-08-22T08:04:42.358Z,21.09
2022-08-22T08:05:42.347Z,21.06
2022-08-22T08:06:42.335Z,21.03
2022-08-22T08:07:42.328Z,20.99
2022-08-22T08:08:42.317Z,21.01
2022-08-22T08:09:42.308Z,21.03
2022-08-22T08:10:42.293Z,21.04
2022-08-22T08:11:42.295Z,21.09
2022-08-22T08:12:42.297Z,21.13
2022-08-22T08:13:42.369Z,21.14
2022-08-22T08:14:42.247Z,21.22
2022-08-22T08:15:42.248Z,21.34
2022-08-22T08:16:42.230Z,21.32
2022-08-22T08:17:42.210Z,21.32
2022-08-22T08:18:44.596Z,21.37
2022-08-22T08:19:42.197Z,21.42
2022-08-22T08:20:42.199Z,21.47
2022-08-22T08:21:42.184Z,21.58
2022-08-22T08:22:42.172Z,21.74
2022-08-22T08:23:42.226Z,21.84
2022-08-22T08:24:43.440Z,21.94
2022-08-22T08:25:42.153Z,22.02
2022-08-22T08:26:42.131Z,22.03
2022-08-22T08:27:42.112Z,22.06
2022-08-22T08:28:42.093Z,22.15
2022-08-22T08:29:42.101Z,22.21
2022-08-22T08:30:42.086Z,22.24
2022-08-22T08:31:44.709Z,22.30
2022-08-22T08:32:42.078Z,22.40
2022-08-22T08:33:42.094Z,22.43
2022-08-22T08:34:42.100Z,22.39
2022-08-22T08:35:42.554Z,22.36
2022-08-22T08:36:43.267Z,22.39
2022-08-22T08:37:42.014Z,22.47
2022-08-22T08:38:41.989Z,22.60
2022-08-22T08:39:42.025Z,22.73
2022-08-22T08:40:41.981Z,22.91
2022-08-22T08:41:41.967Z,23.01
2022-08-22T08:42:41.953Z,23.07
2022-08-22T08:43:42.020Z,23.16
2022-08-22T08:44:41.940Z,23.28
2022-08-22T08:45:41.917Z,23.36
2022-08-22T08:46:41.907Z,23.40
2022-08-22T08:47:42.931Z,23.35
2022-08-22T08:48:41.890Z,23.39
2022-08-22T08:49:43.029Z,23.50
2022-08-22T08:50:43.214Z,23.60
2022-08-22T08:51:41.852Z,23.65
2022-08-22T08:52:41.854Z,23.63
2022-08-22T08:53:43.403Z,23.60
2022-08-22T08:54:41.826Z,23.63
2022-08-22T08:55:41.817Z,23.69
2022-08-22T08:56:42.704Z,23.76
2022-08-22T08:57:42.802Z,23.83
2022-08-22T08:58:41.801Z,23.91
2022-08-22T09:00:42.768Z,24.02
2022-08-22T09:01:41.778Z,23.97
2022-08-22T09:02:42.608Z,23.93
2022-08-22T09:03:41.813Z,23.93
2022-08-22T09:04:41.727Z,24.02
2022-08-22T09:05:41.912Z,24.15
2022-08-22T09:06:42.558Z,24.31
2022-08-22T09:07:41.686Z,24.45
2022-08-22T09:08:41.679Z,24.55
2022-08-22T09:09:41.678Z,24.58
2022-08-22T09:10:41.653Z,24.65
2022-08-22T09:11:41.645Z,24.78
2022-08-22T09:12:52.210Z,24.83
2022-08-22T09:13:42.626Z,24.85
2022-08-22T09:14:41.615Z,24.90
2022-08-22T09:15:41.624Z,24.99
2022-08-22T09:16:45.094Z,25.06
2022-08-22T09:17:42.595Z,25.15
2022-08-22T09:18:41.573Z,25.25
2022-08-22T09:19:41.564Z,25.38
2022-08-22T09:20:41.551Z,25.47
2022-08-22T09:21:41.550Z,25.55
2022-08-22T09:22:50.035Z,25.61
2022-08-22T09:23:42.526Z,25.64
2022-08-22T09:24:41.529Z,25.73
2022-08-22T09:25:41.511Z,25.72
2022-08-22T09:26:41.496Z,25.76
2022-08-22T09:27:41.473Z,25.76
2022-08-22T09:28:41.463Z,25.82
2022-08-22T09:29:54.558Z,25.88
2022-08-22T09:30:42.434Z,25.77
2022-08-22T09:31:47.978Z,25.73
2022-08-22T09:32:42.427Z,25.69
2022-08-22T09:33:41.424Z,25.70
2022-08-22T09:34:41.399Z,25.76
2022-08-22T09:35:41.417Z,25.82
2022-08-22T09:36:41.524Z,25.90
2022-08-22T09:37:41.389Z,25.87
2022-08-22T09:38:47.859Z,25.88
2022-08-22T09:39:42.366Z,25.95
2022-08-22T09:40:41.337Z,26.06
2022-08-22T09:41:41.328Z,26.15
2022-08-22T09:42:44.941Z,26.18
2022-08-22T09:43:45.019Z,26.23
2022-08-22T09:44:42.304Z,26.25
2022-08-22T09:45:41.287Z,26.28
2022-08-22T09:46:41.289Z,26.36
2022-08-22T09:47:41.274Z,26.44
2022-08-22T09:48:41.603Z,26.50
2022-08-22T09:49:41.256Z,26.48
2022-08-22T09:50:41.306Z,26.54
2022-08-22T09:51:41.240Z,26.60
2022-08-22T09:52:41.219Z,26.65
2022-08-22T09:53:41.216Z,26.75
2022-08-22T09:54:41.207Z,26.80
2022-08-22T09:55:41.188Z,26.63
2022-08-22T09:56:41.170Z,26.65
2022-08-22T09:57:41.181Z,26.88
2022-08-22T09:58:41.725Z,27.13
2022-08-22T09:59:41.129Z,27.46
2022-08-22T10:00:41.151Z,27.74
2022-08-22T10:01:42.219Z,27.85
2022-08-22T10:02:43.581Z,27.84
2022-08-22T10:03:41.098Z,28.18
2022-08-22T10:04:42.026Z,28.78
2022-08-22T10:05:44.346Z,29.12
2022-08-22T10:06:41.086Z,29.70
2022-08-22T10:07:41.082Z,30.34
2022-08-22T10:08:41.062Z,30.43
2022-08-22T10:09:41.024Z,30.45
2022-08-22T10:10:41.035Z,30.73
2022-08-22T10:11:42.330Z,31.16
2022-08-22T10:12:41.006Z,31.35
2022-08-22T10:13:40.995Z,31.69
2022-08-22T10:14:40.974Z,32.00
2022-08-22T10:15:41.989Z,32.19
2022-08-22T10:16:40.988Z,32.04
2022-08-22T10:17:41.387Z,31.89
2022-08-22T10:18:52.663Z,31.68
2022-08-22T10:19:41.947Z,31.41
2022-08-22T10:20:40.920Z,31.19
2022-08-22T10:21:40.907Z,31.35
2022-08-22T10:22:40.913Z,31.46
2022-08-22T10:23:40.895Z,31.46
2022-08-22T10:24:44.031Z,31.31
2022-08-22T10:25:42.151Z,31.19
2022-08-22T10:26:40.857Z,31.20
2022-08-22T10:27:40.850Z,31.38
2022-08-22T10:28:40.849Z,31.44
2022-08-22T10:29:40.832Z,31.38
2022-08-22T10:30:40.817Z,30.95
2022-08-22T10:31:45.119Z,30.49
2022-08-22T10:32:42.897Z,30.20
2022-08-22T10:33:40.795Z,30.15
2022-08-22T10:34:40.766Z,30.01
2022-08-22T10:35:40.762Z,29.80
2022-08-22T10:36:40.774Z,29.70
2022-08-22T10:37:46.071Z,29.65
2022-08-22T10:38:46.427Z,29.74
2022-08-22T10:39:41.762Z,29.87
2022-08-22T10:40:40.712Z,29.94
2022-08-22T10:41:40.709Z,29.92
2022-08-22T10:42:40.690Z,29.90
2022-08-22T10:43:40.934Z,29.87
2022-08-22T10:44:40.672Z,29.74
2022-08-22T10:45:40.670Z,29.70
2022-08-22T10:46:42.052Z,29.67
2022-08-22T10:47:40.635Z,29.58
2022-08-22T10:48:40.616Z,29.58
2022-08-22T10:49:40.623Z,29.67
2022-08-22T10:50:40.654Z,29.82
2022-08-22T10:51:40.605Z,30.01
2022-08-22T10:52:40.586Z,30.23
2022-08-22T10:53:40.583Z,30.31
2022-08-22T10:54:40.578Z,30.38
2022-08-22T10:55:40.579Z,30.57
2022-08-22T10:56:40.701Z,30.65
2022-08-22T10:57:40.547Z,30.53
2022-08-22T10:58:40.560Z,30.35
2022-08-22T10:59:40.519Z,30.10
2022-08-22T11:00:46.362Z,29.85
2022-08-22T11:01:42.301Z,29.94
2022-08-22T11:02:42.322Z,30.05
2022-08-22T11:03:40.488Z,30.15
2022-08-22T11:04:40.475Z,30.29
2022-08-22T11:05:40.486Z,30.45
2022-08-22T11:06:40.453Z,30.57
2022-08-22T11:07:40.443Z,30.65
2022-08-22T11:08:40.444Z,30.70
2022-08-22T11:09:40.516Z,30.69
2022-08-22T11:10:40.407Z,30.60
2022-08-22T11:11:40.393Z,30.42
2022-08-22T11:12:41.791Z,30.16
2022-08-22T11:13:42.279Z,30.07
2022-08-22T11:14:40.366Z,30.13
2022-08-22T11:15:40.362Z,29.95
2022-08-22T11:16:41.752Z,29.95
2022-08-22T11:17:44.760Z,29.90
2022-08-22T11:18:41.328Z,29.80
2022-08-22T11:19:41.331Z,29.83
2022-08-22T11:20:40.308Z,29.94
2022-08-22T11:21:40.288Z,30.07
2022-08-22T11:22:40.305Z,30.17
2022-08-22T11:23:40.281Z,30.17
2022-08-22T11:24:53.902Z,30.29
2022-08-22T11:25:41.274Z,30.39
2022-08-22T11:26:46.702Z,30.61
2022-08-22T11:27:41.238Z,30.84
2022-08-22T11:28:40.224Z,30.76
2022-08-22T11:29:41.222Z,30.84
2022-08-22T11:30:45.223Z,30.95
2022-08-22T11:31:51.374Z,31.01
2022-08-22T11:32:41.194Z,30.92
2022-08-22T11:33:46.625Z,30.79
2022-08-22T11:34:41.166Z,30.79
2022-08-22T11:35:40.166Z,30.91
2022-08-22T11:36:40.151Z,30.94
2022-08-22T11:37:43.323Z,31.10
2022-08-22T11:38:40.139Z,31.21
2022-08-22T11:39:40.155Z,31.19
2022-08-22T11:40:40.196Z,30.95
2022-08-22T11:41:40.102Z,30.29
2022-08-22T11:42:47.635Z,29.98
2022-08-22T11:43:41.086Z,29.95
2022-08-22T11:44:49.994Z,30.02
2022-08-22T11:45:41.058Z,30.08
2022-08-22T11:46:40.051Z,29.98
2022-08-22T11:47:40.033Z,29.94
2022-08-22T11:48:40.032Z,30.01
2022-08-22T11:49:40.020Z,30.31
2022-08-22T11:50:42.133Z,30.69
2022-08-22T11:51:39.992Z,30.88
2022-08-22T11:52:39.984Z,31.19
2022-08-22T11:53:39.995Z,31.48
2022-08-22T11:54:39.976Z,31.70
2022-08-22T11:55:39.956Z,31.93
2022-08-22T11:56:40.122Z,32.06
2022-08-22T11:57:44.304Z,32.07
2022-08-22T11:58:40.948Z,32.30
2022-08-22T11:59:40.141Z,32.48
2022-08-22T12:00:39.897Z,32.52
2022-08-22T12:01:39.950Z,32.63
2022-08-22T12:02:39.961Z,32.55
2022-08-22T12:03:39.886Z,32.51
2022-08-22T12:04:39.866Z,32.62
2022-08-22T12:05:39.859Z,32.77
2022-08-22T12:06:40.450Z,32.75
2022-08-22T12:07:39.839Z,32.78
2022-08-22T12:08:39.827Z,32.78
2022-08-22T12:09:39.817Z,32.88
2022-08-22T12:10:39.808Z,32.87
2022-08-22T12:11:39.846Z,33.07
2022-08-22T12:12:39.797Z,33.19
2022-08-22T12:13:39.787Z,33.37
2022-08-22T12:14:39.778Z,33.38
2022-08-22T12:15:40.417Z,33.23
2022-08-22T12:16:39.775Z,33.04
2022-08-22T12:17:55.470Z,33.00
2022-08-22T12:18:40.740Z,32.75
2022-08-22T12:19:58.878Z,32.59
2022-08-22T12:20:40.717Z,32.56
2022-08-22T12:21:39.704Z,32.52
2022-08-22T12:22:39.697Z,32.72
2022-08-22T12:23:48.697Z,32.89
2022-08-22T12:24:40.677Z,33.16
2022-08-22T12:25:39.675Z,33.28
2022-08-22T12:26:40.728Z,33.23
2022-08-22T12:27:39.652Z,33.15
2022-08-22T12:28:40.647Z,33.31
2022-08-22T12:29:40.007Z,33.31
2022-08-22T12:30:40.639Z,33.23
2022-08-22T12:31:39.613Z,33.12
2022-08-22T12:32:39.609Z,32.92
2022-08-22T12:33:39.594Z,32.81
2022-08-22T12:34:39.575Z,32.85
2022-08-22T12:35:39.577Z,32.78
2022-08-22T12:36:39.572Z,32.75
2022-08-22T12:37:53.139Z,32.72
2022-08-22T12:38:40.557Z,32.63
2022-08-22T12:39:41.080Z,32.38
2022-08-22T12:40:39.536Z,32.37
2022-08-22T12:41:39.515Z,32.40
2022-08-22T12:42:41.913Z,32.43
2022-08-22T12:43:42.442Z,32.44
2022-08-22T12:44:39.507Z,32.65
2022-08-22T12:45:40.422Z,32.82
2022-08-22T12:46:47.144Z,32.74
2022-08-22T12:47:42.260Z,32.38
2022-08-22T12:48:39.455Z,32.07
2022-08-22T12:49:39.446Z,32.29
2022-08-22T12:50:39.448Z,32.78
2022-08-22T12:51:39.429Z,33.19